Terminal Aerodrome Forecast
Issued by NWS

Home | Current Version | Previous Version | Text Only | Print | Product List | Glossary On
Versions: 1 2 3 4 5 6 7 8 9 10 11 12 13 14 15 16 17 18 19 20 21 22 23 24 25 26 27 28 29 30 31 32 33 34 35 36 37 38 39
000
FTAK31 PAFA 071126
TAFAUN
TAF
PAUN 071126Z 0712/0812 13008KT P6SM BKN090
     FM071600 18008KT P6SM VCSH BKN040 OVC100
     FM072000 22007KT 6SM -RA BR SCT025 OVC040
     FM080200 26007KT P6SM VCSH BKN040 BKN100=

USA.gov is the U.S. government's official web portal to all federal, state and local government web resources and services.